createdAt,value
2022-11-15T00:01:20.291Z,100.00
2022-11-15T00:03:53.597Z,100.00
2022-11-15T00:06:22.154Z,100.00
2022-11-15T00:08:50.618Z,100.00
2022-11-15T00:11:18.878Z,100.00
2022-11-15T00:13:47.161Z,100.00
2022-11-15T00:16:15.428Z,100.00
2022-11-15T00:18:49.265Z,100.00
2022-11-15T00:21:20.405Z,100.00
2022-11-15T00:23:48.677Z,100.00
2022-11-15T00:26:17.568Z,100.00
2022-11-15T00:28:45.974Z,100.00
2022-11-15T00:31:16.202Z,100.00
2022-11-15T00:33:46.604Z,100.00
2022-11-15T00:36:15.439Z,100.00
2022-11-15T00:38:45.087Z,100.00
2022-11-15T00:41:13.290Z,100.00
2022-11-15T00:43:44.531Z,100.00
2022-11-15T00:46:13.052Z,100.00
2022-11-15T00:48:41.328Z,100.00
2022-11-15T00:51:09.592Z,100.00
2022-11-15T00:53:37.995Z,100.00
2022-11-15T00:56:08.211Z,100.00
2022-11-15T00:58:36.462Z,100.00
2022-11-15T01:01:10.015Z,100.00
2022-11-15T01:03:40.263Z,100.00
2022-11-15T01:06:10.043Z,100.00
2022-11-15T01:08:38.586Z,100.00
2022-11-15T01:11:11.069Z,100.00
2022-11-15T01:13:40.940Z,100.00
2022-11-15T01:16:11.848Z,100.00
2022-11-15T01:18:41.062Z,100.00
2022-11-15T01:21:11.500Z,100.00
2022-11-15T01:23:40.729Z,100.00
2022-11-15T01:26:14.948Z,100.00
2022-11-15T01:28:44.000Z,100.00
2022-11-15T01:31:16.989Z,100.00
2022-11-15T01:33:45.522Z,100.00
2022-11-15T01:36:17.118Z,100.00
2022-11-15T01:38:45.826Z,100.00
2022-11-15T01:41:21.703Z,100.00
2022-11-15T01:43:53.889Z,100.00
2022-11-15T01:46:31.032Z,100.00
2022-11-15T01:49:04.432Z,100.00
2022-11-15T01:51:35.186Z,100.00
2022-11-15T01:54:08.669Z,100.00
2022-11-15T01:56:45.588Z,100.00
2022-11-15T01:59:14.763Z,100.00
2022-11-15T02:01:43.840Z,100.00
2022-11-15T02:04:17.855Z,100.00
2022-11-15T02:06:47.663Z,100.00
2022-11-15T02:09:16.110Z,100.00
2022-11-15T02:11:47.748Z,100.00
2022-11-15T02:14:18.020Z,100.00
2022-11-15T02:16:57.138Z,100.00
2022-11-15T02:19:55.792Z,100.00
2022-11-15T02:22:39.603Z,100.00
2022-11-15T02:25:38.839Z,100.00
2022-11-15T02:28:42.255Z,100.00
2022-11-15T02:31:20.155Z,100.00
2022-11-15T02:33:59.835Z,100.00
2022-11-15T02:36:40.237Z,100.00
2022-11-15T02:39:17.381Z,100.00
2022-11-15T02:41:52.660Z,100.00
2022-11-15T02:44:27.394Z,100.00
2022-11-15T02:47:17.468Z,100.00
2022-11-15T02:49:52.262Z,100.00
2022-11-15T02:52:23.180Z,100.00
2022-11-15T02:54:57.110Z,100.00
2022-11-15T02:57:46.348Z,100.00
2022-11-15T03:00:17.127Z,100.00
2022-11-15T03:03:06.952Z,100.00
2022-11-15T03:05:44.071Z,100.00
2022-11-15T03:08:19.363Z,100.00
2022-11-15T03:11:02.135Z,100.00
2022-11-15T03:13:36.822Z,100.00
2022-11-15T03:16:11.783Z,100.00
2022-11-15T03:18:46.025Z,100.00
2022-11-15T03:21:16.700Z,100.00
2022-11-15T03:23:46.941Z,100.00
2022-11-15T03:26:18.606Z,100.00
2022-11-15T03:28:52.167Z,100.00
2022-11-15T03:31:44.468Z,100.00
2022-11-15T03:34:28.254Z,100.00
2022-11-15T03:36:56.776Z,100.00
2022-11-15T03:39:27.369Z,100.00
2022-11-15T03:42:10.036Z,100.00
2022-11-15T03:44:47.210Z,100.00
2022-11-15T03:47:23.395Z,100.00
2022-11-15T03:50:01.953Z,100.00
2022-11-15T03:52:35.876Z,100.00
2022-11-15T03:55:07.860Z,100.00
2022-11-15T03:57:36.133Z,100.00
2022-11-15T04:00:05.481Z,100.00
2022-11-15T04:02:34.076Z,100.00
2022-11-15T04:05:03.731Z,100.00
2022-11-15T04:07:32.165Z,100.00
2022-11-15T04:10:06.651Z,100.00
2022-11-15T04:12:37.253Z,100.00
2022-11-15T04:15:11.200Z,100.00
2022-11-15T04:17:43.003Z,100.00
2022-11-15T04:20:34.716Z,100.00
2022-11-15T04:23:23.483Z,100.00
2022-11-15T04:25:54.984Z,100.00
2022-11-15T04:28:24.270Z,100.00
2022-11-15T04:30:52.483Z,100.00
2022-11-15T04:33:21.053Z,100.00
2022-11-15T04:36:04.718Z,100.00
2022-11-15T04:38:33.064Z,100.00
2022-11-15T04:41:01.366Z,100.00
2022-11-15T04:43:30.058Z,100.00
2022-11-15T04:45:58.501Z,100.00
2022-11-15T04:48:26.773Z,100.00
2022-11-15T04:50:56.360Z,100.00
2022-11-15T04:53:24.609Z,100.00
2022-11-15T04:55:52.829Z,100.00
2022-11-15T04:58:21.077Z,100.00
2022-11-15T05:00:49.396Z,100.00
2022-11-15T05:03:35.268Z,100.00
2022-11-15T05:06:05.236Z,100.00
2022-11-15T05:08:33.552Z,100.00
2022-11-15T05:11:01.828Z,100.00
2022-11-15T05:13:30.405Z,100.00
2022-11-15T05:15:58.867Z,100.00
2022-11-15T05:18:27.122Z,100.00
2022-11-15T05:20:55.346Z,100.00
2022-11-15T05:23:24.985Z,100.00
2022-11-15T05:25:53.236Z,100.00
2022-11-15T05:28:21.494Z,100.00
2022-11-15T05:30:49.732Z,100.00
2022-11-15T05:33:18.101Z,100.00
2022-11-15T05:35:56.547Z,100.00
2022-11-15T05:38:26.345Z,100.00
2022-11-15T05:40:54.774Z,100.00
2022-11-15T05:43:23.486Z,100.00
2022-11-15T05:45:52.218Z,100.00
2022-11-15T05:48:20.954Z,100.00
2022-11-15T05:50:50.105Z,100.00
2022-11-15T05:53:23.714Z,100.00
2022-11-15T05:55:53.542Z,100.00
2022-11-15T05:58:22.278Z,100.00
2022-11-15T06:00:50.644Z,100.00
2022-11-15T06:03:18.960Z,100.00
2022-11-15T06:05:47.176Z,100.00
2022-11-15T06:08:15.432Z,100.00
2022-11-15T06:10:43.665Z,100.00
2022-11-15T06:13:13.299Z,100.00
2022-11-15T06:15:41.518Z,100.00
2022-11-15T06:18:09.777Z,100.00
2022-11-15T06:20:38.008Z,100.00
2022-11-15T06:23:07.191Z,100.00
2022-11-15T06:25:35.420Z,100.00
2022-11-15T06:28:03.700Z,100.00
2022-11-15T06:30:33.357Z,100.00
2022-11-15T06:33:03.595Z,100.00
2022-11-15T06:35:32.971Z,100.00
2022-11-15T06:38:06.305Z,100.00
2022-11-15T06:40:37.154Z,100.00
2022-11-15T06:43:06.343Z,100.00
2022-11-15T06:45:36.102Z,100.00
2022-11-15T06:48:04.381Z,100.00
2022-11-15T06:50:32.664Z,100.00
2022-11-15T06:53:04.525Z,100.00
2022-11-15T06:55:32.874Z,100.00
2022-11-15T06:58:01.160Z,100.00
2022-11-15T07:00:29.486Z,100.00
2022-11-15T07:03:02.052Z,100.00
2022-11-15T07:05:31.013Z,100.00
2022-11-15T07:08:00.504Z,100.00
2022-11-15T07:10:29.367Z,100.00
2022-11-15T07:12:58.455Z,100.00
2022-11-15T07:15:27.860Z,100.00
2022-11-15T07:17:56.119Z,100.00
2022-11-15T07:20:25.758Z,100.00
2022-11-15T07:23:01.353Z,100.00
2022-11-15T07:25:29.983Z,100.00
2022-11-15T07:27:58.950Z,100.00
2022-11-15T07:30:29.184Z,100.00
2022-11-15T07:32:58.381Z,100.00
2022-11-15T07:35:30.540Z,100.00
2022-11-15T07:38:00.083Z,100.00
2022-11-15T07:40:29.115Z,100.00
2022-11-15T07:43:02.558Z,100.00
2022-11-15T07:45:30.929Z,100.00
2022-11-15T07:47:59.290Z,100.00
2022-11-15T07:50:30.703Z,100.00
2022-11-15T07:53:00.848Z,100.00
2022-11-15T07:55:30.741Z,100.00
2022-11-15T07:58:04.637Z,100.00
2022-11-15T08:00:33.627Z,100.00
2022-11-15T08:03:06.515Z,100.00
2022-11-15T08:05:37.066Z,100.00
2022-11-15T08:08:06.421Z,100.00
2022-11-15T08:10:40.235Z,100.00
2022-11-15T08:13:11.246Z,100.00
2022-11-15T08:15:40.426Z,100.00
2022-11-15T08:18:12.664Z,100.00
2022-11-15T08:20:43.484Z,100.00
2022-11-15T08:23:14.333Z,100.00
2022-11-15T08:25:42.878Z,100.00
2022-11-15T08:28:13.574Z,100.00
2022-11-15T08:30:44.418Z,100.00
2022-11-15T08:33:14.827Z,100.00
2022-11-15T08:35:45.549Z,100.00
2022-11-15T08:38:13.869Z,100.00
2022-11-15T08:40:42.390Z,100.00
2022-11-15T08:43:10.676Z,100.00
2022-11-15T08:45:38.904Z,100.00
2022-11-15T08:48:07.593Z,100.00
2022-11-15T08:50:36.173Z,100.00
2022-11-15T08:53:09.499Z,100.00
2022-11-15T08:55:39.835Z,100.00
2022-11-15T08:58:08.313Z,100.00
2022-11-15T09:00:36.675Z,100.00
2022-11-15T09:03:06.785Z,100.00
2022-11-15T09:05:37.824Z,100.00
2022-11-15T09:08:25.623Z,100.00
2022-11-15T09:10:56.821Z,100.00
2022-11-15T09:13:25.130Z,100.00
2022-11-15T09:15:53.442Z,100.00
2022-11-15T09:18:23.371Z,100.00
2022-11-15T09:20:51.713Z,100.00
2022-11-15T09:23:21.336Z,100.00
2022-11-15T09:25:49.817Z,100.00
2022-11-15T09:28:18.115Z,100.00
2022-11-15T09:30:46.769Z,100.00
2022-11-15T09:33:15.513Z,100.00
2022-11-15T09:35:43.776Z,100.00
2022-11-15T09:38:12.146Z,100.00
2022-11-15T09:40:41.764Z,100.00
2022-11-15T09:43:43.697Z,100.00
2022-11-15T09:46:18.604Z,100.00
2022-11-15T09:48:53.964Z,100.00
2022-11-15T09:51:30.461Z,100.00
2022-11-15T09:54:37.875Z,100.00
2022-11-15T09:56:57.748Z,100.00
2022-11-15T09:59:47.672Z,100.00
2022-11-15T10:02:43.850Z,100.00
2022-11-15T10:05:21.470Z,100.00
2022-11-15T10:07:59.465Z,100.00
2022-11-15T10:10:34.438Z,100.00
2022-11-15T10:13:05.498Z,100.00
2022-11-15T10:15:34.122Z,100.00
2022-11-15T10:18:17.479Z,100.00
2022-11-15T10:20:51.312Z,100.00
2022-11-15T10:23:23.157Z,100.00
2022-11-15T10:25:55.185Z,100.00
2022-11-15T10:28:30.701Z,100.00
2022-11-15T10:31:01.972Z,100.00
2022-11-15T10:33:35.504Z,100.00
2022-11-15T10:36:34.027Z,100.00
2022-11-15T10:39:02.321Z,100.00
2022-11-15T10:41:40.066Z,100.00
2022-11-15T10:44:28.569Z,100.00
2022-11-15T10:47:30.853Z,100.00
2022-11-15T10:50:07.153Z,100.00
2022-11-15T10:52:38.756Z,100.00
2022-11-15T10:55:26.864Z,100.00
2022-11-15T10:57:57.813Z,100.00
2022-11-15T11:00:36.115Z,100.00
2022-11-15T11:03:08.129Z,100.00
2022-11-15T11:05:42.107Z,100.00
2022-11-15T11:08:25.388Z,100.00
2022-11-15T11:11:02.774Z,100.00
2022-11-15T11:13:34.477Z,100.00
2022-11-15T11:16:38.861Z,100.00
2022-11-15T11:19:21.985Z,100.00
2022-11-15T11:22:01.864Z,100.00
2022-11-15T11:24:38.680Z,100.00
2022-11-15T11:27:23.992Z,100.00
2022-11-15T11:30:09.125Z,100.00
2022-11-15T11:32:55.444Z,100.00
2022-11-15T11:35:31.937Z,100.00
2022-11-15T11:38:19.832Z,100.00
2022-11-15T11:41:02.918Z,100.00
2022-11-15T11:43:43.541Z,100.00
2022-11-15T11:46:37.262Z,100.00
2022-11-15T11:49:12.954Z,100.00
2022-11-15T11:51:47.293Z,100.00
2022-11-15T11:54:22.910Z,100.00
2022-11-15T11:56:52.534Z,100.00
2022-11-15T11:59:39.602Z,100.00
2022-11-15T12:02:19.754Z,100.00
2022-11-15T12:04:53.888Z,100.00
2022-11-15T12:07:27.462Z,100.00
2022-11-15T12:10:02.463Z,100.00
2022-11-15T12:12:42.014Z,99.90
2022-11-15T12:15:19.004Z,100.00
2022-11-15T12:17:48.671Z,99.64
2022-11-15T12:20:22.211Z,100.00
2022-11-15T12:22:58.891Z,100.00
2022-11-15T12:25:33.176Z,100.00
2022-11-15T12:28:13.713Z,99.06
2022-11-15T12:30:51.472Z,97.28
2022-11-15T12:33:39.239Z,96.66
2022-11-15T12:36:14.382Z,97.39
2022-11-15T12:38:58.824Z,94.61
2022-11-15T12:41:29.190Z,96.80
2022-11-15T12:43:59.943Z,95.59
2022-11-15T12:47:05.311Z,100.00
2022-11-15T12:49:48.879Z,100.00
2022-11-15T12:52:18.848Z,100.00
2022-11-15T12:55:25.771Z,100.00
2022-11-15T12:57:54.639Z,97.35
2022-11-15T13:00:47.976Z,99.31
2022-11-15T13:03:29.900Z,100.00
2022-11-15T13:06:11.369Z,100.00
2022-11-15T13:08:51.897Z,100.00
2022-11-15T13:11:53.276Z,100.00
2022-11-15T13:14:46.144Z,100.00
2022-11-15T13:17:40.650Z,100.00
2022-11-15T13:20:23.635Z,100.00
2022-11-15T13:22:55.684Z,100.00
2022-11-15T13:26:05.749Z,100.00
2022-11-15T13:28:38.630Z,100.00
2022-11-15T13:31:32.612Z,100.00
2022-11-15T13:34:17.889Z,100.00
2022-11-15T13:36:54.330Z,100.00
2022-11-15T13:39:31.863Z,100.00
2022-11-15T13:42:02.133Z,100.00
2022-11-15T13:44:33.362Z,100.00
2022-11-15T13:47:07.295Z,100.00
2022-11-15T13:49:38.700Z,100.00
2022-11-15T13:52:09.878Z,100.00
2022-11-15T13:54:43.975Z,100.00
2022-11-15T13:57:18.593Z,100.00
2022-11-15T13:59:50.513Z,100.00
2022-11-15T14:02:21.582Z,100.00
2022-11-15T14:04:56.018Z,100.00
2022-11-15T14:07:27.475Z,100.00
2022-11-15T14:09:56.194Z,100.00
2022-11-15T14:12:31.414Z,100.00
2022-11-15T14:15:00.772Z,100.00
2022-11-15T14:17:45.700Z,100.00
2022-11-15T14:20:33.642Z,100.00
2022-11-15T14:23:04.748Z,100.00
2022-11-15T14:25:34.866Z,100.00
2022-11-15T14:28:30.306Z,100.00
2022-11-15T14:31:01.180Z,100.00
2022-11-15T14:33:32.682Z,100.00
2022-11-15T14:36:06.383Z,100.00
2022-11-15T14:38:35.919Z,100.00
2022-11-15T14:41:04.560Z,100.00
2022-11-15T14:43:34.245Z,100.00
2022-11-15T14:46:02.640Z,100.00
2022-11-15T14:48:31.366Z,100.00
2022-11-15T14:51:00.128Z,100.00
2022-11-15T14:53:28.482Z,100.00
2022-11-15T14:55:56.760Z,100.00
2022-11-15T14:58:25.033Z,100.00
2022-11-15T15:00:54.667Z,100.00
2022-11-15T15:03:22.907Z,100.00
2022-11-15T15:05:51.186Z,100.00
2022-11-15T15:08:19.564Z,100.00
2022-11-15T15:10:48.476Z,100.00
2022-11-15T15:13:20.720Z,100.00
2022-11-15T15:15:50.166Z,100.00
2022-11-15T15:18:21.026Z,100.00
2022-11-15T15:20:57.360Z,100.00
2022-11-15T15:23:27.952Z,100.00
2022-11-15T15:25:59.439Z,100.00
2022-11-15T15:28:31.424Z,100.00
2022-11-15T15:31:02.416Z,100.00
2022-11-15T15:33:32.132Z,100.00
2022-11-15T15:36:00.550Z,100.00
2022-11-15T15:38:28.918Z,100.00
2022-11-15T15:40:57.391Z,100.00
2022-11-15T15:43:25.634Z,100.00
2022-11-15T15:45:53.976Z,100.00
2022-11-15T15:48:22.224Z,100.00
2022-11-15T15:50:52.070Z,100.00
2022-11-15T15:53:20.407Z,100.00
2022-11-15T15:55:48.666Z,100.00
2022-11-15T15:58:16.911Z,100.00
2022-11-15T16:00:45.157Z,100.00
2022-11-15T16:03:13.404Z,100.00
2022-11-15T16:05:42.156Z,100.00
2022-11-15T16:08:20.383Z,100.00
2022-11-15T16:10:49.478Z,100.00
2022-11-15T16:13:18.454Z,100.00
2022-11-15T16:15:49.559Z,100.00
2022-11-15T16:18:19.308Z,100.00
2022-11-15T16:20:50.979Z,100.00
2022-11-15T16:23:24.568Z,100.00
2022-11-15T16:25:56.527Z,100.00
2022-11-15T16:28:28.363Z,100.00
2022-11-15T16:31:04.667Z,100.00
2022-11-15T16:33:33.694Z,100.00
2022-11-15T16:36:02.687Z,100.00
2022-11-15T16:38:32.944Z,100.00
2022-11-15T16:41:01.309Z,100.00
2022-11-15T16:43:29.519Z,100.00
2022-11-15T16:45:57.832Z,100.00
2022-11-15T16:48:28.819Z,100.00
2022-11-15T16:50:58.493Z,100.00
2022-11-15T16:53:27.592Z,100.00
2022-11-15T16:55:58.573Z,100.00
2022-11-15T16:58:27.005Z,100.00
2022-11-15T17:00:56.906Z,100.00
2022-11-15T17:03:26.123Z,100.00
2022-11-15T17:05:54.652Z,100.00
2022-11-15T17:08:24.248Z,100.00
2022-11-15T17:10:52.917Z,100.00
2022-11-15T17:13:22.501Z,100.00
2022-11-15T17:15:50.776Z,100.00
2022-11-15T17:18:21.315Z,100.00
2022-11-15T17:20:49.593Z,100.00
2022-11-15T17:23:17.824Z,100.00
2022-11-15T17:25:46.104Z,100.00
2022-11-15T17:28:14.325Z,100.00
2022-11-15T17:30:44.761Z,100.00
2022-11-15T17:33:12.990Z,100.00
2022-11-15T17:35:41.244Z,100.00
2022-11-15T17:38:09.528Z,100.00
2022-11-15T17:40:37.823Z,100.00
2022-11-15T17:43:07.312Z,100.00
2022-11-15T17:45:37.560Z,100.00
2022-11-15T17:48:07.674Z,100.00
2022-11-15T17:50:35.993Z,100.00
2022-11-15T17:53:04.287Z,100.00
2022-11-15T17:55:34.308Z,100.00
2022-11-15T17:58:02.595Z,100.00
2022-11-15T18:00:30.832Z,100.00
2022-11-15T18:02:59.161Z,100.00
2022-11-15T18:05:28.745Z,100.00
2022-11-15T18:07:57.009Z,100.00
2022-11-15T18:10:25.257Z,100.00
2022-11-15T18:12:53.503Z,100.00
2022-11-15T18:15:21.730Z,100.00
2022-11-15T18:17:50.016Z,100.00
2022-11-15T18:20:18.690Z,100.00
2022-11-15T18:22:48.411Z,100.00
2022-11-15T18:25:16.840Z,100.00
2022-11-15T18:27:45.200Z,100.00
2022-11-15T18:30:14.336Z,100.00
2022-11-15T18:32:43.011Z,100.00
2022-11-15T18:35:11.393Z,100.00
2022-11-15T18:37:39.743Z,100.00
2022-11-15T18:40:11.107Z,100.00
2022-11-15T18:42:39.989Z,100.00
2022-11-15T18:45:10.203Z,100.00
2022-11-15T18:47:38.739Z,100.00
2022-11-15T18:50:08.092Z,100.00
2022-11-15T18:52:36.361Z,100.00
2022-11-15T18:55:05.441Z,100.00
2022-11-15T18:57:35.077Z,100.00
2022-11-15T19:00:03.935Z,100.00
2022-11-15T19:02:32.169Z,100.00
2022-11-15T19:05:00.493Z,100.00
2022-11-15T19:07:28.860Z,100.00
2022-11-15T19:09:57.262Z,100.00
2022-11-15T19:12:25.528Z,100.00
2022-11-15T19:14:55.199Z,100.00
2022-11-15T19:17:23.467Z,100.00
2022-11-15T19:19:51.700Z,100.00
2022-11-15T19:22:20.198Z,100.00
2022-11-15T19:24:48.424Z,100.00
2022-11-15T19:27:16.733Z,100.00
2022-11-15T19:29:44.964Z,100.00
2022-11-15T19:32:14.616Z,100.00
2022-11-15T19:34:42.841Z,100.00
2022-11-15T19:37:11.089Z,100.00
2022-11-15T19:39:41.203Z,100.00
2022-11-15T19:42:10.032Z,100.00
2022-11-15T19:44:38.554Z,100.00
2022-11-15T19:47:09.363Z,100.00
2022-11-15T19:49:39.281Z,100.00
2022-11-15T19:52:07.646Z,100.00
2022-11-15T19:54:35.918Z,100.00
2022-11-15T19:57:04.157Z,100.00
2022-11-15T19:59:32.406Z,100.00
2022-11-15T20:02:00.640Z,100.00
2022-11-15T20:04:28.886Z,100.00
2022-11-15T20:06:58.548Z,100.00
2022-11-15T20:09:26.921Z,100.00
2022-11-15T20:11:55.154Z,100.00
2022-11-15T20:14:24.168Z,100.00
2022-11-15T20:16:54.489Z,100.00
2022-11-15T20:19:22.966Z,100.00
2022-11-15T20:21:51.239Z,100.00
2022-11-15T20:24:20.877Z,100.00
2022-11-15T20:26:49.200Z,100.00
2022-11-15T20:29:17.652Z,100.00
2022-11-15T20:31:45.973Z,100.00
2022-11-15T20:34:14.243Z,100.00
2022-11-15T20:36:42.577Z,100.00
2022-11-15T20:39:10.816Z,100.00
2022-11-15T20:41:40.494Z,100.00
2022-11-15T20:44:08.776Z,100.00
2022-11-15T20:46:36.973Z,100.00
2022-11-15T20:49:06.462Z,100.00
2022-11-15T20:51:34.817Z,100.00
2022-11-15T20:54:03.639Z,100.00
2022-11-15T20:56:31.912Z,100.00
2022-11-15T20:59:01.632Z,100.00
2022-11-15T21:01:30.824Z,100.00
2022-11-15T21:03:59.487Z,100.00
2022-11-15T21:06:28.667Z,100.00
2022-11-15T21:09:14.584Z,100.00
2022-11-15T21:12:01.167Z,100.00
2022-11-15T21:14:31.067Z,100.00
2022-11-15T21:16:59.475Z,100.00
2022-11-15T21:19:32.628Z,100.00
2022-11-15T21:22:09.325Z,100.00
2022-11-15T21:24:37.600Z,100.00
2022-11-15T21:27:06.071Z,100.00
2022-11-15T21:29:38.685Z,100.00
2022-11-15T21:32:09.152Z,100.00
2022-11-15T21:34:37.658Z,100.00
2022-11-15T21:37:06.583Z,100.00
2022-11-15T21:39:35.101Z,100.00
2022-11-15T21:42:03.438Z,100.00
2022-11-15T21:44:31.758Z,100.00
2022-11-15T21:47:01.380Z,100.00
2022-11-15T21:49:29.639Z,100.00
2022-11-15T21:51:57.876Z,100.00
2022-11-15T21:54:26.119Z,100.00
2022-11-15T21:56:54.342Z,100.00
2022-11-15T21:59:22.575Z,100.00
2022-11-15T22:02:08.469Z,100.00
2022-11-15T22:04:38.102Z,100.00
2022-11-15T22:07:06.399Z,100.00
2022-11-15T22:09:34.716Z,100.00
2022-11-15T22:12:02.939Z,100.00
2022-11-15T22:14:31.173Z,100.00
2022-11-15T22:16:59.430Z,100.00
2022-11-15T22:19:27.734Z,100.00
2022-11-15T22:21:57.415Z,100.00
2022-11-15T22:24:25.867Z,100.00
2022-11-15T22:26:54.200Z,100.00
2022-11-15T22:29:22.539Z,100.00
2022-11-15T22:31:50.854Z,100.00
2022-11-15T22:34:19.158Z,100.00
2022-11-15T22:37:18.336Z,100.00
2022-11-15T22:39:37.135Z,100.00
2022-11-15T22:42:05.720Z,100.00
2022-11-15T22:44:34.046Z,100.00
2022-11-15T22:47:02.355Z,100.00
2022-11-15T22:49:30.648Z,100.00
2022-11-15T22:51:59.004Z,100.00
2022-11-15T22:54:27.308Z,100.00
2022-11-15T22:56:57.009Z,100.00
2022-11-15T22:59:25.332Z,100.00
2022-11-15T23:01:54.021Z,100.00
2022-11-15T23:04:22.647Z,100.00
2022-11-15T23:06:51.109Z,100.00
2022-11-15T23:09:19.404Z,100.00
2022-11-15T23:12:04.998Z,100.00
2022-11-15T23:14:34.719Z,100.00
2022-11-15T23:17:03.033Z,100.00
2022-11-15T23:19:31.381Z,100.00
2022-11-15T23:22:17.093Z,100.00
2022-11-15T23:24:45.398Z,100.00
2022-11-15T23:27:15.392Z,100.00
2022-11-15T23:30:02.434Z,100.00
2022-11-15T23:32:48.263Z,100.00
2022-11-15T23:35:17.070Z,100.00
2022-11-15T23:37:45.389Z,100.00
2022-11-15T23:40:14.561Z,100.00
2022-11-15T23:42:42.857Z,100.00
2022-11-15T23:45:12.792Z,100.00
2022-11-15T23:47:41.142Z,100.00
2022-11-15T23:50:10.384Z,100.00
2022-11-15T23:52:39.402Z,100.00
2022-11-15T23:55:08.864Z,100.00
2022-11-15T23:57:37.444Z,100.00
